Terminal Aerodrome Forecast
Issued by NWS

Home | Current Version | Previous Version | Text Only | Print | Product List | Glossary On
Versions: 1 2 3 4 5 6 7 8 9 10 11 12 13 14 15 16 17
000
FTUS44 KTSA 171316 AAA
TAFXNA
TAF AMD
KXNA 171316Z 1713/1812 24005KT P6SM OVC015
      TEMPO 1713/1717 OVC006
     FM172100 29007KT P6SM SCT035 SCT250
     FM180300 29002KT P6SM BKN250=

USA.gov is the U.S. government's official web portal to all federal, state and local government web resources and services.